sensor_id;sensor_type;location;lat;lon;timestamp;temperature;humidity
59208;DHT22;44977;53.132;6.408;2023-05-07T00:03:55;13.20;99.90
59208;DHT22;44977;53.132;6.408;2023-05-07T00:08:57;13.20;99.90
59208;DHT22;44977;53.132;6.408;2023-05-07T00:13:58;13.10;99.90
59208;DHT22;44977;53.132;6.408;2023-05-07T00:18:58;13.10;99.90
59208;DHT22;44977;53.132;6.408;2023-05-07T00:23:59;13.10;99.90
59208;DHT22;44977;53.132;6.408;2023-05-07T00:29:00;13.00;99.90
59208;DHT22;44977;53.132;6.408;2023-05-07T00:34:01;13.00;99.90
59208;DHT22;44977;53.132;6.408;2023-05-07T00:39:01;12.90;99.90
59208;DHT22;44977;53.132;6.408;2023-05-07T00:44:03;12.90;99.90
59208;DHT22;44977;53.132;6.408;2023-05-07T00:49:05;12.90;99.90
59208;DHT22;44977;53.132;6.408;2023-05-07T00:54:06;12.80;99.90
59208;DHT22;44977;53.132;6.408;2023-05-07T00:59:08;12.80;99.90
59208;DHT22;44977;53.132;6.408;2023-05-07T01:04:08;12.70;99.90
59208;DHT22;44977;53.132;6.408;2023-05-07T01:09:09;12.70;99.90
59208;DHT22;44977;53.132;6.408;2023-05-07T01:14:10;12.60;99.90
59208;DHT22;44977;53.132;6.408;2023-05-07T01:19:12;12.60;99.90
59208;DHT22;44977;53.132;6.408;2023-05-07T01:24:15;12.50;99.90
59208;DHT22;44977;53.132;6.408;2023-05-07T01:29:16;12.50;99.90
59208;DHT22;44977;53.132;6.408;2023-05-07T01:34:17;12.40;99.90
59208;DHT22;44977;53.132;6.408;2023-05-07T01:39:19;12.40;99.90
59208;DHT22;44977;53.132;6.408;2023-05-07T01:44:20;12.40;99.90
59208;DHT22;44977;53.132;6.408;2023-05-07T01:49:20;12.30;99.90
59208;DHT22;44977;53.132;6.408;2023-05-07T01:54:25;12.30;99.90
59208;DHT22;44977;53.132;6.408;2023-05-07T01:59:28;12.20;99.90
59208;DHT22;44977;53.132;6.408;2023-05-07T02:04:28;12.20;99.90
59208;DHT22;44977;53.132;6.408;2023-05-07T02:09:29;12.10;99.90
59208;DHT22;44977;53.132;6.408;2023-05-07T02:14:30;12.00;99.90
59208;DHT22;44977;53.132;6.408;2023-05-07T02:19:31;12.00;99.90
59208;DHT22;44977;53.132;6.408;2023-05-07T02:24:31;12.00;99.90
59208;DHT22;44977;53.132;6.408;2023-05-07T02:29:32;11.90;99.90
59208;DHT22;44977;53.132;6.408;2023-05-07T02:34:33;11.80;99.90
59208;DHT22;44977;53.132;6.408;2023-05-07T02:39:34;11.80;99.90
59208;DHT22;44977;53.132;6.408;2023-05-07T02:44:34;11.80;99.90
59208;DHT22;44977;53.132;6.408;2023-05-07T02:49:36;11.70;99.90
59208;DHT22;44977;53.132;6.408;2023-05-07T02:54:36;11.70;99.90
59208;DHT22;44977;53.132;6.408;2023-05-07T02:59:37;11.70;99.90
59208;DHT22;44977;53.132;6.408;2023-05-07T03:04:39;11.70;99.90
59208;DHT22;44977;53.132;6.408;2023-05-07T03:09:40;11.60;99.90
59208;DHT22;44977;53.132;6.408;2023-05-07T03:14:40;11.60;99.90
59208;DHT22;44977;53.132;6.408;2023-05-07T03:19:41;11.60;99.90
59208;DHT22;44977;53.132;6.408;2023-05-07T03:24:42;11.50;99.90
59208;DHT22;44977;53.132;6.408;2023-05-07T03:29:42;11.50;99.90
59208;DHT22;44977;53.132;6.408;2023-05-07T03:34:44;11.50;99.90
59208;DHT22;44977;53.132;6.408;2023-05-07T03:39:45;11.40;99.90
59208;DHT22;44977;53.132;6.408;2023-05-07T03:44:45;11.40;99.90
59208;DHT22;44977;53.132;6.408;2023-05-07T03:49:46;11.40;99.90
59208;DHT22;44977;53.132;6.408;2023-05-07T03:54:47;11.40;99.90
59208;DHT22;44977;53.132;6.408;2023-05-07T03:59:47;11.40;99.90
59208;DHT22;44977;53.132;6.408;2023-05-07T04:04:48;11.40;99.90
59208;DHT22;44977;53.132;6.408;2023-05-07T04:09:49;11.40;99.90
59208;DHT22;44977;53.132;6.408;2023-05-07T04:14:50;11.40;99.90
59208;DHT22;44977;53.132;6.408;2023-05-07T04:19:51;11.40;99.90
59208;DHT22;44977;53.132;6.408;2023-05-07T04:24:52;11.40;99.90
59208;DHT22;44977;53.132;6.408;2023-05-07T04:29:52;11.30;99.90
59208;DHT22;44977;53.132;6.408;2023-05-07T04:34:56;11.30;99.90
59208;DHT22;44977;53.132;6.408;2023-05-07T04:39:57;11.30;99.90
59208;DHT22;44977;53.132;6.408;2023-05-07T04:44:57;11.30;99.90
59208;DHT22;44977;53.132;6.408;2023-05-07T04:49:58;11.20;99.90
59208;DHT22;44977;53.132;6.408;2023-05-07T04:54:59;11.20;99.90
59208;DHT22;44977;53.132;6.408;2023-05-07T05:00:00;11.20;99.90
59208;DHT22;44977;53.132;6.408;2023-05-07T05:05:01;11.20;99.90
59208;DHT22;44977;53.132;6.408;2023-05-07T05:10:04;11.10;99.90
59208;DHT22;44977;53.132;6.408;2023-05-07T05:15:06;11.10;99.90
59208;DHT22;44977;53.132;6.408;2023-05-07T05:20:07;11.10;99.90
59208;DHT22;44977;53.132;6.408;2023-05-07T05:25:09;11.10;99.90
59208;DHT22;44977;53.132;6.408;2023-05-07T05:30:11;11.10;99.90
59208;DHT22;44977;53.132;6.408;2023-05-07T05:35:11;11.10;99.90
59208;DHT22;44977;53.132;6.408;2023-05-07T05:40:12;11.10;99.90
59208;DHT22;44977;53.132;6.408;2023-05-07T05:45:13;11.10;99.90
59208;DHT22;44977;53.132;6.408;2023-05-07T05:50:14;11.10;99.90
59208;DHT22;44977;53.132;6.408;2023-05-07T05:55:14;11.10;99.90
59208;DHT22;44977;53.132;6.408;2023-05-07T06:00:16;11.10;99.90
59208;DHT22;44977;53.132;6.408;2023-05-07T06:05:16;11.10;99.90
59208;DHT22;44977;53.132;6.408;2023-05-07T06:10:17;11.10;99.90
59208;DHT22;44977;53.132;6.408;2023-05-07T06:15:18;11.10;99.90
59208;DHT22;44977;53.132;6.408;2023-05-07T06:20:19;11.10;99.90
59208;DHT22;44977;53.132;6.408;2023-05-07T06:25:19;11.10;99.90
59208;DHT22;44977;53.132;6.408;2023-05-07T06:30:20;11.10;99.90
59208;DHT22;44977;53.132;6.408;2023-05-07T06:35:21;11.20;99.90
59208;DHT22;44977;53.132;6.408;2023-05-07T06:40:22;11.20;99.90
59208;DHT22;44977;53.132;6.408;2023-05-07T06:45:22;11.30;99.90
59208;DHT22;44977;53.132;6.408;2023-05-07T06:50:24;11.20;99.90
59208;DHT22;44977;53.132;6.408;2023-05-07T06:55:24;11.40;99.90
59208;DHT22;44977;53.132;6.408;2023-05-07T07:00:29;11.40;99.90
59208;DHT22;44977;53.132;6.408;2023-05-07T07:05:30;11.30;99.90
59208;DHT22;44977;53.132;6.408;2023-05-07T07:10:30;11.40;99.90
59208;DHT22;44977;53.132;6.408;2023-05-07T07:15:31;11.40;99.90
59208;DHT22;44977;53.132;6.408;2023-05-07T07:20:32;11.40;99.90
59208;DHT22;44977;53.132;6.408;2023-05-07T07:25:33;11.50;99.90
59208;DHT22;44977;53.132;6.408;2023-05-07T07:30:34;11.50;99.90
59208;DHT22;44977;53.132;6.408;2023-05-07T07:35:35;11.60;99.90
59208;DHT22;44977;53.132;6.408;2023-05-07T07:40:35;11.60;99.90
59208;DHT22;44977;53.132;6.408;2023-05-07T07:45:36;11.70;99.90
59208;DHT22;44977;53.132;6.408;2023-05-07T07:50:37;11.70;99.90
59208;DHT22;44977;53.132;6.408;2023-05-07T07:55:39;11.80;99.90
59208;DHT22;44977;53.132;6.408;2023-05-07T08:00:40;11.80;99.90
59208;DHT22;44977;53.132;6.408;2023-05-07T08:05:41;11.80;99.90
59208;DHT22;44977;53.132;6.408;2023-05-07T08:10:42;11.90;99.90
59208;DHT22;44977;53.132;6.408;2023-05-07T08:15:42;11.90;99.90
59208;DHT22;44977;53.132;6.408;2023-05-07T08:20:43;11.90;99.90
59208;DHT22;44977;53.132;6.408;2023-05-07T08:25:44;12.10;99.90
59208;DHT22;44977;53.132;6.408;2023-05-07T08:30:44;12.20;99.90
59208;DHT22;44977;53.132;6.408;2023-05-07T08:35:45;12.30;99.90
59208;DHT22;44977;53.132;6.408;2023-05-07T08:40:46;12.40;99.90
59208;DHT22;44977;53.132;6.408;2023-05-07T08:45:49;12.40;99.90
59208;DHT22;44977;53.132;6.408;2023-05-07T08:50:53;12.50;99.90
59208;DHT22;44977;53.132;6.408;2023-05-07T08:55:54;12.60;99.90
59208;DHT22;44977;53.132;6.408;2023-05-07T09:00:55;12.70;99.90
59208;DHT22;44977;53.132;6.408;2023-05-07T09:05:56;12.80;99.90
59208;DHT22;44977;53.132;6.408;2023-05-07T09:10:57;13.00;99.90
59208;DHT22;44977;53.132;6.408;2023-05-07T09:15:57;13.10;99.90
59208;DHT22;44977;53.132;6.408;2023-05-07T09:20:58;13.20;99.90
59208;DHT22;44977;53.132;6.408;2023-05-07T09:26:00;13.40;99.90
59208;DHT22;44977;53.132;6.408;2023-05-07T09:31:02;13.50;99.90
59208;DHT22;44977;53.132;6.408;2023-05-07T09:36:04;13.50;99.90
59208;DHT22;44977;53.132;6.408;2023-05-07T09:41:09;13.70;99.90
59208;DHT22;44977;53.132;6.408;2023-05-07T09:46:15;13.80;99.90
59208;DHT22;44977;53.132;6.408;2023-05-07T09:51:32;13.90;99.90
59208;DHT22;44977;53.132;6.408;2023-05-07T09:56:35;14.10;99.90
59208;DHT22;44977;53.132;6.408;2023-05-07T10:01:38;14.30;99.90
59208;DHT22;44977;53.132;6.408;2023-05-07T10:06:41;14.40;99.90
59208;DHT22;44977;53.132;6.408;2023-05-07T10:11:43;14.50;99.90
59208;DHT22;44977;53.132;6.408;2023-05-07T10:16:44;14.70;99.90
59208;DHT22;44977;53.132;6.408;2023-05-07T10:21:53;14.80;99.90
59208;DHT22;44977;53.132;6.408;2023-05-07T10:26:56;15.00;99.90
59208;DHT22;44977;53.132;6.408;2023-05-07T10:37:16;15.20;99.90
59208;DHT22;44977;53.132;6.408;2023-05-07T10:42:18;15.20;99.90
59208;DHT22;44977;53.132;6.408;2023-05-07T10:47:18;15.40;99.90
59208;DHT22;44977;53.132;6.408;2023-05-07T10:52:21;15.50;99.90
59208;DHT22;44977;53.132;6.408;2023-05-07T10:57:36;15.70;99.90
59208;DHT22;44977;53.132;6.408;2023-05-07T11:08:00;16.10;99.90
59208;DHT22;44977;53.132;6.408;2023-05-07T11:13:01;16.30;99.90
59208;DHT22;44977;53.132;6.408;2023-05-07T11:18:02;16.70;99.90
59208;DHT22;44977;53.132;6.408;2023-05-07T11:23:04;16.80;99.90
59208;DHT22;44977;53.132;6.408;2023-05-07T11:28:07;17.00;99.90
59208;DHT22;44977;53.132;6.408;2023-05-07T11:33:10;17.10;99.90
59208;DHT22;44977;53.132;6.408;2023-05-07T11:38:15;17.20;99.90
59208;DHT22;44977;53.132;6.408;2023-05-07T11:43:16;17.40;99.90
59208;DHT22;44977;53.132;6.408;2023-05-07T11:48:17;17.40;99.90
59208;DHT22;44977;53.132;6.408;2023-05-07T11:53:18;17.60;99.90
59208;DHT22;44977;53.132;6.408;2023-05-07T11:58:23;17.70;99.90
59208;DHT22;44977;53.132;6.408;2023-05-07T12:03:24;17.80;99.90
59208;DHT22;44977;53.132;6.408;2023-05-07T12:08:25;17.80;99.90
59208;DHT22;44977;53.132;6.408;2023-05-07T12:13:26;18.00;99.90
59208;DHT22;44977;53.132;6.408;2023-05-07T12:18:26;18.20;99.90
59208;DHT22;44977;53.132;6.408;2023-05-07T12:23:28;18.40;99.90
59208;DHT22;44977;53.132;6.408;2023-05-07T12:28:31;18.60;99.90
59208;DHT22;44977;53.132;6.408;2023-05-07T12:33:32;18.60;99.90
59208;DHT22;44977;53.132;6.408;2023-05-07T12:38:37;18.70;99.90
59208;DHT22;44977;53.132;6.408;2023-05-07T12:43:38;18.90;99.90
59208;DHT22;44977;53.132;6.408;2023-05-07T12:48:44;19.00;99.90
59208;DHT22;44977;53.132;6.408;2023-05-07T12:53:46;19.00;99.90
59208;DHT22;44977;53.132;6.408;2023-05-07T12:58:48;19.00;99.90
59208;DHT22;44977;53.132;6.408;2023-05-07T13:03:49;19.20;99.90
59208;DHT22;44977;53.132;6.408;2023-05-07T13:08:53;19.20;99.90
59208;DHT22;44977;53.132;6.408;2023-05-07T13:13:53;19.20;99.90
59208;DHT22;44977;53.132;6.408;2023-05-07T13:18:54;19.20;99.90
59208;DHT22;44977;53.132;6.408;2023-05-07T13:23:55;19.20;99.90
59208;DHT22;44977;53.132;6.408;2023-05-07T13:28:55;19.30;99.90
59208;DHT22;44977;53.132;6.408;2023-05-07T13:33:56;19.40;99.90
59208;DHT22;44977;53.132;6.408;2023-05-07T13:38:57;19.50;99.90
59208;DHT22;44977;53.132;6.408;2023-05-07T13:43:59;19.60;99.90
59208;DHT22;44977;53.132;6.408;2023-05-07T13:49:00;19.80;99.90
59208;DHT22;44977;53.132;6.408;2023-05-07T13:54:01;20.00;99.90
59208;DHT22;44977;53.132;6.408;2023-05-07T13:59:02;20.00;99.90
59208;DHT22;44977;53.132;6.408;2023-05-07T14:04:03;20.10;99.90
59208;DHT22;44977;53.132;6.408;2023-05-07T14:09:03;20.20;99.90
59208;DHT22;44977;53.132;6.408;2023-05-07T14:14:05;20.10;99.90
59208;DHT22;44977;53.132;6.408;2023-05-07T14:19:08;20.00;99.90
59208;DHT22;44977;53.132;6.408;2023-05-07T14:24:10;19.90;99.90
59208;DHT22;44977;53.132;6.408;2023-05-07T14:29:10;19.80;99.90
59208;DHT22;44977;53.132;6.408;2023-05-07T14:34:11;20.00;99.90
59208;DHT22;44977;53.132;6.408;2023-05-07T14:39:12;20.00;99.90
59208;DHT22;44977;53.132;6.408;2023-05-07T14:44:12;20.00;99.90
59208;DHT22;44977;53.132;6.408;2023-05-07T14:49:14;19.80;99.90
59208;DHT22;44977;53.132;6.408;2023-05-07T14:54:17;19.70;99.90
59208;DHT22;44977;53.132;6.408;2023-05-07T14:59:18;19.70;99.90
59208;DHT22;44977;53.132;6.408;2023-05-07T15:04:21;19.70;99.90
59208;DHT22;44977;53.132;6.408;2023-05-07T15:09:22;19.80;99.90
59208;DHT22;44977;53.132;6.408;2023-05-07T15:14:22;19.80;99.90
59208;DHT22;44977;53.132;6.408;2023-05-07T15:19:23;19.70;99.90
59208;DHT22;44977;53.132;6.408;2023-05-07T15:24:29;19.70;99.90
59208;DHT22;44977;53.132;6.408;2023-05-07T15:29:31;19.80;99.90
59208;DHT22;44977;53.132;6.408;2023-05-07T15:34:31;19.70;99.90
59208;DHT22;44977;53.132;6.408;2023-05-07T15:39:32;19.60;99.90
59208;DHT22;44977;53.132;6.408;2023-05-07T15:44:33;19.70;99.90
59208;DHT22;44977;53.132;6.408;2023-05-07T15:49:34;19.90;99.90
59208;DHT22;44977;53.132;6.408;2023-05-07T15:54:35;20.00;99.90
59208;DHT22;44977;53.132;6.408;2023-05-07T15:59:37;20.10;99.90
59208;DHT22;44977;53.132;6.408;2023-05-07T16:04:38;20.20;99.90
59208;DHT22;44977;53.132;6.408;2023-05-07T16:09:39;20.10;99.90
59208;DHT22;44977;53.132;6.408;2023-05-07T16:14:40;20.20;99.90
59208;DHT22;44977;53.132;6.408;2023-05-07T16:19:41;20.20;99.90
59208;DHT22;44977;53.132;6.408;2023-05-07T16:24:42;20.20;99.90
59208;DHT22;44977;53.132;6.408;2023-05-07T16:29:42;20.20;99.90
59208;DHT22;44977;53.132;6.408;2023-05-07T16:34:43;19.90;99.90
59208;DHT22;44977;53.132;6.408;2023-05-07T16:39:44;19.70;99.90
59208;DHT22;44977;53.132;6.408;2023-05-07T16:44:44;19.40;99.90
59208;DHT22;44977;53.132;6.408;2023-05-07T16:49:45;19.30;99.90
59208;DHT22;44977;53.132;6.408;2023-05-07T16:54:46;19.20;99.90
59208;DHT22;44977;53.132;6.408;2023-05-07T16:59:46;19.20;99.90
59208;DHT22;44977;53.132;6.408;2023-05-07T17:04:47;19.10;99.90
59208;DHT22;44977;53.132;6.408;2023-05-07T17:09:48;19.00;99.90
59208;DHT22;44977;53.132;6.408;2023-05-07T17:14:48;18.90;99.90
59208;DHT22;44977;53.132;6.408;2023-05-07T17:19:49;18.80;99.90
59208;DHT22;44977;53.132;6.408;2023-05-07T17:24:50;18.60;99.90
59208;DHT22;44977;53.132;6.408;2023-05-07T17:29:50;18.50;99.90
59208;DHT22;44977;53.132;6.408;2023-05-07T17:34:51;18.40;99.90
59208;DHT22;44977;53.132;6.408;2023-05-07T17:39:52;18.30;99.90
59208;DHT22;44977;53.132;6.408;2023-05-07T17:44:52;18.20;99.90
59208;DHT22;44977;53.132;6.408;2023-05-07T17:49:54;18.20;99.90
59208;DHT22;44977;53.132;6.408;2023-05-07T17:54:55;18.10;99.90
59208;DHT22;44977;53.132;6.408;2023-05-07T17:59:58;18.00;99.90
59208;DHT22;44977;53.132;6.408;2023-05-07T18:04:59;17.80;99.90
59208;DHT22;44977;53.132;6.408;2023-05-07T18:10:00;17.70;99.90
59208;DHT22;44977;53.132;6.408;2023-05-07T18:15:01;17.50;99.90
59208;DHT22;44977;53.132;6.408;2023-05-07T18:20:05;17.40;99.90
59208;DHT22;44977;53.132;6.408;2023-05-07T18:25:08;17.20;99.90
59208;DHT22;44977;53.132;6.408;2023-05-07T18:30:09;17.10;99.90
59208;DHT22;44977;53.132;6.408;2023-05-07T18:35:10;17.00;99.90
59208;DHT22;44977;53.132;6.408;2023-05-07T18:40:11;16.90;99.90
59208;DHT22;44977;53.132;6.408;2023-05-07T18:45:12;16.80;99.90
59208;DHT22;44977;53.132;6.408;2023-05-07T18:50:13;16.70;99.90
59208;DHT22;44977;53.132;6.408;2023-05-07T18:55:14;16.60;99.90
59208;DHT22;44977;53.132;6.408;2023-05-07T19:00:16;16.40;99.90
59208;DHT22;44977;53.132;6.408;2023-05-07T19:05:17;16.30;99.90
59208;DHT22;44977;53.132;6.408;2023-05-07T19:10:18;16.20;99.90
59208;DHT22;44977;53.132;6.408;2023-05-07T19:15:18;16.10;99.90
59208;DHT22;44977;53.132;6.408;2023-05-07T19:20:20;16.00;99.90
59208;DHT22;44977;53.132;6.408;2023-05-07T19:25:21;15.90;99.90
59208;DHT22;44977;53.132;6.408;2023-05-07T19:30:21;15.80;99.90
59208;DHT22;44977;53.132;6.408;2023-05-07T19:35:22;15.80;99.90
59208;DHT22;44977;53.132;6.408;2023-05-07T19:40:23;15.60;99.90
59208;DHT22;44977;53.132;6.408;2023-05-07T19:45:24;15.60;99.90
59208;DHT22;44977;53.132;6.408;2023-05-07T19:50:24;15.50;99.90
59208;DHT22;44977;53.132;6.408;2023-05-07T19:55:25;15.40;99.90
59208;DHT22;44977;53.132;6.408;2023-05-07T20:00:28;15.30;99.90
59208;DHT22;44977;53.132;6.408;2023-05-07T20:05:33;15.20;99.90
59208;DHT22;44977;53.132;6.408;2023-05-07T20:10:33;15.20;99.90
59208;DHT22;44977;53.132;6.408;2023-05-07T20:15:38;15.10;99.90
59208;DHT22;44977;53.132;6.408;2023-05-07T20:20:38;15.00;99.90
59208;DHT22;44977;53.132;6.408;2023-05-07T20:25:40;15.00;99.90
59208;DHT22;44977;53.132;6.408;2023-05-07T20:30:42;14.90;99.90
59208;DHT22;44977;53.132;6.408;2023-05-07T20:35:43;14.80;99.90
59208;DHT22;44977;53.132;6.408;2023-05-07T20:40:44;14.70;99.90
59208;DHT22;44977;53.132;6.408;2023-05-07T20:45:45;14.70;99.90
59208;DHT22;44977;53.132;6.408;2023-05-07T20:50:46;14.60;99.90
59208;DHT22;44977;53.132;6.408;2023-05-07T20:55:46;14.50;99.90
59208;DHT22;44977;53.132;6.408;2023-05-07T21:00:47;14.40;99.90
59208;DHT22;44977;53.132;6.408;2023-05-07T21:05:52;14.40;99.90
59208;DHT22;44977;53.132;6.408;2023-05-07T21:10:54;14.30;99.90
59208;DHT22;44977;53.132;6.408;2023-05-07T21:15:55;14.30;99.90
59208;DHT22;44977;53.132;6.408;2023-05-07T21:20:56;14.20;99.90
59208;DHT22;44977;53.132;6.408;2023-05-07T21:25:57;14.10;99.90
59208;DHT22;44977;53.132;6.408;2023-05-07T21:30:57;14.10;99.90
59208;DHT22;44977;53.132;6.408;2023-05-07T21:35:58;13.90;99.90
59208;DHT22;44977;53.132;6.408;2023-05-07T21:40:59;13.90;99.90
59208;DHT22;44977;53.132;6.408;2023-05-07T21:45:59;13.80;99.90
59208;DHT22;44977;53.132;6.408;2023-05-07T21:51:04;13.70;99.90
59208;DHT22;44977;53.132;6.408;2023-05-07T21:56:05;13.60;99.90
59208;DHT22;44977;53.132;6.408;2023-05-07T22:01:06;13.60;99.90
59208;DHT22;44977;53.132;6.408;2023-05-07T22:06:08;13.50;99.90
59208;DHT22;44977;53.132;6.408;2023-05-07T22:11:09;13.40;99.90
59208;DHT22;44977;53.132;6.408;2023-05-07T22:16:10;13.30;99.90
59208;DHT22;44977;53.132;6.408;2023-05-07T22:21:10;13.30;99.90
59208;DHT22;44977;53.132;6.408;2023-05-07T22:26:12;13.20;99.90
59208;DHT22;44977;53.132;6.408;2023-05-07T22:31:13;13.20;99.90
59208;DHT22;44977;53.132;6.408;2023-05-07T22:36:13;13.20;99.90
59208;DHT22;44977;53.132;6.408;2023-05-07T22:41:14;13.10;99.90
59208;DHT22;44977;53.132;6.408;2023-05-07T22:46:15;13.10;99.90
59208;DHT22;44977;53.132;6.408;2023-05-07T22:51:16;13.00;99.90
59208;DHT22;44977;53.132;6.408;2023-05-07T22:56:17;12.90;99.90
59208;DHT22;44977;53.132;6.408;2023-05-07T23:01:18;12.90;99.90
59208;DHT22;44977;53.132;6.408;2023-05-07T23:06:19;12.80;99.90
59208;DHT22;44977;53.132;6.408;2023-05-07T23:11:19;12.70;99.90
59208;DHT22;44977;53.132;6.408;2023-05-07T23:16:20;12.70;99.90
59208;DHT22;44977;53.132;6.408;2023-05-07T23:21:21;12.60;99.90
59208;DHT22;44977;53.132;6.408;2023-05-07T23:26:22;12.50;99.90
59208;DHT22;44977;53.132;6.408;2023-05-07T23:31:26;12.50;99.90
59208;DHT22;44977;53.132;6.408;2023-05-07T23:36:26;12.50;99.90
59208;DHT22;44977;53.132;6.408;2023-05-07T23:41:27;12.40;99.90
59208;DHT22;44977;53.132;6.408;2023-05-07T23:46:28;12.30;99.90
59208;DHT22;44977;53.132;6.408;2023-05-07T23:51:29;12.30;99.90
59208;DHT22;44977;53.132;6.408;2023-05-07T23:56:30;12.30;99.90
